Time;durP1;ratioP1;P1;durP2;ratioP2;P2;SDS_P1;SDS_P2;PMS_P1;PMS_P2;Temp;Humidity;BMP_temperature;BMP_pressure;BME280_temperature;BME280_humidity;BME280_pressure;Samples;Min_cycle;Max_cycle;Signal;HPM_P1;HPM_P2
2023/01/24 00:01:16;;;;;;;2.87;2.57;;;;;;;;;;5046893;28;20698;-70
2023/01/24 00:03:43;;;;;;;2.50;1.87;;;;;;;;;;5046966;28;20207;-70
2023/01/24 00:06:10;;;;;;;3.17;2.27;;;;;;;;;;5047857;28;20256;-70
2023/01/24 00:08:37;;;;;;;1.53;1.43;;;;;;;;;;5047977;28;20261;-71
2023/01/24 00:11:07;;;;;;;1.27;1.17;;;;;;;;;;5047748;28;20227;-71
2023/01/24 00:13:34;;;;;;;3.27;2.07;;;;;;;;;;5047972;28;20214;-70
2023/01/24 00:16:05;;;;;;;1.97;1.87;;;;;;;;;;5048471;28;20215;-70
2023/01/24 00:18:32;;;;;;;1.20;1.20;;;;;;;;;;5047610;28;20239;-70
2023/01/24 00:21:03;;;;;;;2.27;1.33;;;;;;;;;;5043759;28;20890;-70
2023/01/24 00:23:30;;;;;;;1.07;1.07;;;;;;;;;;5047606;28;20897;-70
2023/01/24 00:25:57;;;;;;;1.20;1.10;;;;;;;;;;5047769;28;20290;-70
2023/01/24 00:28:38;;;;;;;1.90;1.00;;;;;;;;;;5045821;28;20204;-70
2023/01/24 00:31:05;;;;;;;3.63;2.50;;;;;;;;;;5046749;28;20210;-70
2023/01/24 00:33:33;;;;;;;1.13;1.13;;;;;;;;;;5047209;28;20632;-70
2023/01/24 00:36:00;;;;;;;8.83;3.23;;;;;;;;;;5046863;28;20634;-70
2023/01/24 00:38:27;;;;;;;3.57;1.33;;;;;;;;;;5046376;28;20580;-70
2023/01/24 00:40:54;;;;;;;5.73;1.33;;;;;;;;;;5047027;28;20207;-70
2023/01/24 00:43:21;;;;;;;3.00;1.40;;;;;;;;;;5046810;28;20234;-70
2023/01/24 00:45:49;;;;;;;1.33;1.30;;;;;;;;;;5047326;28;20230;-70
2023/01/24 00:48:16;;;;;;;0.20;0.20;;;;;;;;;;5046048;28;20215;-70
2023/01/24 00:50:43;;;;;;;2.20;2.03;;;;;;;;;;5047235;28;20211;-70
2023/01/24 00:53:10;;;;;;;2.00;1.00;;;;;;;;;;5045781;28;20207;-71
2023/01/24 00:55:42;;;;;;;1.43;1.33;;;;;;;;;;5045860;28;20215;-70
2023/01/24 00:58:09;;;;;;;6.87;2.00;;;;;;;;;;5045025;28;20327;-70
2023/01/24 01:00:36;;;;;;;1.53;1.53;;;;;;;;;;5046893;28;20209;-70
2023/01/24 01:03:05;;;;;;;4.77;2.70;;;;;;;;;;5046317;28;20231;-71
2023/01/24 01:05:32;;;;;;;1.23;1.03;;;;;;;;;;5047560;28;20227;-70
2023/01/24 01:07:59;;;;;;;0.73;0.73;;;;;;;;;;5046130;28;20873;-70
2023/01/24 01:10:26;;;;;;;1.73;1.53;;;;;;;;;;5047818;28;20206;-70
2023/01/24 01:12:53;;;;;;;0.70;0.70;;;;;;;;;;5046265;28;20221;-70
2023/01/24 01:15:20;;;;;;;3.43;1.47;;;;;;;;;;5047186;28;20198;-69
2023/01/24 01:17:47;;;;;;;2.93;2.50;;;;;;;;;;5046800;28;20696;-70
2023/01/24 01:20:15;;;;;;;2.30;0.70;;;;;;;;;;5047468;28;20241;-69
2023/01/24 01:22:42;;;;;;;0.93;0.93;;;;;;;;;;5046255;28;20709;-70
2023/01/24 01:25:10;;;;;;;1.90;1.10;;;;;;;;;;5047324;28;20213;-70
2023/01/24 01:27:37;;;;;;;2.30;2.10;;;;;;;;;;5047008;28;20258;-70
2023/01/24 01:30:04;;;;;;;2.30;1.60;;;;;;;;;;5039613;28;20233;-70
2023/01/24 01:32:31;;;;;;;0.93;0.63;;;;;;;;;;5045564;28;20214;-70
2023/01/24 01:34:58;;;;;;;1.80;1.37;;;;;;;;;;5047375;28;20203;-70
2023/01/24 01:37:26;;;;;;;2.53;1.67;;;;;;;;;;5046514;28;20261;-70
2023/01/24 01:39:54;;;;;;;0.27;0.23;;;;;;;;;;5046906;28;20222;-70
2023/01/24 01:42:21;;;;;;;2.37;1.63;;;;;;;;;;5046056;28;20453;-70
2023/01/24 01:44:49;;;;;;;1.73;1.63;;;;;;;;;;5047036;28;20211;-71
2023/01/24 01:47:19;;;;;;;3.93;2.00;;;;;;;;;;5047409;28;20207;-69
2023/01/24 01:49:48;;;;;;;3.03;0.90;;;;;;;;;;5046803;28;20213;-71
2023/01/24 01:52:15;;;;;;;3.47;1.57;;;;;;;;;;5045556;28;20207;-70
2023/01/24 01:54:45;;;;;;;2.00;1.60;;;;;;;;;;5046353;28;20915;-70
2023/01/24 01:57:14;;;;;;;3.83;2.60;;;;;;;;;;5046811;28;20760;-70
2023/01/24 01:59:42;;;;;;;1.43;1.00;;;;;;;;;;5047025;28;20211;-69
2023/01/24 02:02:10;;;;;;;1.70;1.60;;;;;;;;;;5045918;28;20238;-68
2023/01/24 02:04:38;;;;;;;1.37;0.87;;;;;;;;;;5047112;28;20652;-69
2023/01/24 02:07:08;;;;;;;2.53;0.77;;;;;;;;;;5046079;28;20219;-69
2023/01/24 02:09:37;;;;;;;0.80;0.80;;;;;;;;;;5047099;28;20211;-69
2023/01/24 02:12:06;;;;;;;3.97;2.47;;;;;;;;;;5045807;28;20211;-69
2023/01/24 02:17:20;;;;;;;2.10;2.00;;;;;;;;;;5047372;28;20353;-69
2023/01/24 02:19:51;;;;;;;2.73;1.77;;;;;;;;;;5046692;28;20242;-70
2023/01/24 02:22:21;;;;;;;3.33;1.83;;;;;;;;;;5042357;28;20227;-69
2023/01/24 02:24:53;;;;;;;1.43;1.23;;;;;;;;;;5046847;28;20211;-69
2023/01/24 02:27:22;;;;;;;1.60;1.50;;;;;;;;;;5048396;28;20214;-69
2023/01/24 02:29:49;;;;;;;1.43;1.33;;;;;;;;;;5041244;28;20214;-68
2023/01/24 02:32:18;;;;;;;6.60;2.17;;;;;;;;;;5049219;28;20229;-68
2023/01/24 02:34:45;;;;;;;2.23;1.67;;;;;;;;;;5050138;28;20258;-69
2023/01/24 02:37:14;;;;;;;4.10;2.60;;;;;;;;;;5050112;28;20701;-70
2023/01/24 02:39:45;;;;;;;6.80;4.03;;;;;;;;;;5050334;28;20203;-69
2023/01/24 02:42:13;;;;;;;3.57;2.97;;;;;;;;;;5049405;28;20243;-69
2023/01/24 02:44:44;;;;;;;3.67;2.60;;;;;;;;;;5049922;28;20215;-70
2023/01/24 02:47:11;;;;;;;3.03;1.37;;;;;;;;;;5050063;28;20214;-69
2023/01/24 02:49:38;;;;;;;6.40;3.00;;;;;;;;;;5049662;28;20208;-70
2023/01/24 02:54:50;;;;;;;3.97;2.73;;;;;;;;;;5047834;28;20210;-69
2023/01/24 03:00:05;;;;;;;2.30;2.10;;;;;;;;;;5049888;28;20226;-69
2023/01/24 03:02:32;;;;;;;6.20;3.93;;;;;;;;;;5049529;28;20223;-69
2023/01/24 03:04:59;;;;;;;2.60;2.00;;;;;;;;;;5048558;28;20218;-69
2023/01/24 03:07:26;;;;;;;4.30;2.63;;;;;;;;;;5049755;28;20215;-69
2023/01/24 03:09:53;;;;;;;4.80;3.37;;;;;;;;;;5049883;28;20217;-69
2023/01/24 03:34:33;;;;;;;2.67;1.30;;;;;;;;;;5048373;28;20321;-70
2023/01/24 03:37:00;;;;;;;6.53;2.57;;;;;;;;;;5048978;28;20209;-70
2023/01/24 03:42:12;;;;;;;2.47;1.53;;;;;;;;;;5048204;28;20969;-69
2023/01/24 03:44:39;;;;;;;1.73;1.57;;;;;;;;;;5048198;28;20676;-70
2023/01/24 03:47:07;;;;;;;1.50;1.40;;;;;;;;;;5049055;28;20218;-70
2023/01/24 03:52:25;;;;;;;2.33;1.03;;;;;;;;;;5049140;28;20647;-70
2023/01/24 03:54:52;;;;;;;5.10;1.63;;;;;;;;;;5056195;28;20217;-70
2023/01/24 03:57:19;;;;;;;3.00;1.77;;;;;;;;;;5048011;28;20230;-70
2023/01/24 03:59:46;;;;;;;2.30;1.80;;;;;;;;;;5047814;28;20218;-69
2023/01/24 04:02:14;;;;;;;0.73;0.57;;;;;;;;;;5047665;28;20791;-70
2023/01/24 04:07:38;;;;;;;3.93;2.33;;;;;;;;;;4986774;28;20224;-70
2023/01/24 04:10:05;;;;;;;3.70;2.53;;;;;;;;;;5032489;28;20221;-70
2023/01/24 04:12:32;;;;;;;0.97;0.87;;;;;;;;;;5048234;28;20229;-70
2023/01/24 04:14:59;;;;;;;1.53;1.17;;;;;;;;;;5047431;28;20222;-70
2023/01/24 04:17:28;;;;;;;1.50;0.83;;;;;;;;;;5048629;28;20205;-70
2023/01/24 04:19:55;;;;;;;3.40;1.30;;;;;;;;;;5047070;28;20253;-70
2023/01/24 04:22:22;;;;;;;3.33;2.00;;;;;;;;;;5048290;28;21004;-70
2023/01/24 04:24:49;;;;;;;4.33;2.57;;;;;;;;;;5039374;28;20637;-70
2023/01/24 04:27:16;;;;;;;3.57;2.60;;;;;;;;;;5043376;28;20214;-70
2023/01/24 04:29:43;;;;;;;0.63;0.30;;;;;;;;;;5043227;28;20991;-70
2023/01/24 04:32:10;;;;;;;6.03;2.93;;;;;;;;;;5047286;28;20218;-70
2023/01/24 04:34:38;;;;;;;2.10;0.67;;;;;;;;;;5045790;28;20436;-69
2023/01/24 04:37:05;;;;;;;1.37;1.27;;;;;;;;;;5036797;28;20684;-70
2023/01/24 04:39:32;;;;;;;0.70;0.67;;;;;;;;;;5047187;28;20210;-70
2023/01/24 04:41:59;;;;;;;2.77;1.17;;;;;;;;;;5046903;28;20844;-69
2023/01/24 04:44:26;;;;;;;4.00;3.40;;;;;;;;;;5046629;28;20224;-70
2023/01/24 04:46:53;;;;;;;4.47;2.37;;;;;;;;;;5046905;28;20271;-70
2023/01/24 04:49:20;;;;;;;2.57;2.43;;;;;;;;;;5046680;28;20213;-69
2023/01/24 04:51:49;;;;;;;3.20;2.00;;;;;;;;;;5045797;28;20218;-70
2023/01/24 04:54:16;;;;;;;4.00;2.67;;;;;;;;;;5046903;28;20210;-69
2023/01/24 04:56:44;;;;;;;5.20;1.47;;;;;;;;;;5046299;28;20280;-70
2023/01/24 04:59:12;;;;;;;1.23;1.13;;;;;;;;;;5047443;28;20203;-70
2023/01/24 05:01:39;;;;;;;4.57;3.20;;;;;;;;;;5046375;28;20319;-70
2023/01/24 05:04:07;;;;;;;7.20;3.13;;;;;;;;;;5044609;28;20231;-70
2023/01/24 05:06:34;;;;;;;11.97;3.10;;;;;;;;;;5046346;28;20257;-70
2023/01/24 05:09:09;;;;;;;3.60;2.63;;;;;;;;;;5048368;28;20207;-69
2023/01/24 05:11:37;;;;;;;3.07;2.60;;;;;;;;;;5046680;28;20214;-69
2023/01/24 05:14:04;;;;;;;2.87;1.93;;;;;;;;;;5047914;28;20207;-70
2023/01/24 05:16:32;;;;;;;3.30;2.97;;;;;;;;;;5045942;28;20200;-70
2023/01/24 05:18:59;;;;;;;5.13;3.07;;;;;;;;;;5047917;28;20247;-70
2023/01/24 05:21:26;;;;;;;4.57;2.23;;;;;;;;;;5046955;28;20261;-70
2023/01/24 05:23:53;;;;;;;1.50;1.30;;;;;;;;;;5046113;28;20242;-69
2023/01/24 05:26:23;;;;;;;4.83;3.20;;;;;;;;;;5046788;28;20627;-70
2023/01/24 05:28:50;;;;;;;6.97;3.30;;;;;;;;;;5047661;28;20212;-69
2023/01/24 05:31:17;;;;;;;7.20;3.97;;;;;;;;;;5046575;28;20296;-74
2023/01/24 05:33:44;;;;;;;5.00;3.53;;;;;;;;;;5048369;28;20211;-71
2023/01/24 05:36:12;;;;;;;2.13;1.43;;;;;;;;;;5046334;28;20215;-71
2023/01/24 05:38:39;;;;;;;10.33;4.90;;;;;;;;;;5047136;28;20693;-71
2023/01/24 05:41:07;;;;;;;6.13;2.93;;;;;;;;;;5046382;28;20212;-71
2023/01/24 05:43:35;;;;;;;4.60;3.47;;;;;;;;;;5047684;28;20231;-70
2023/01/24 05:46:04;;;;;;;5.50;2.60;;;;;;;;;;5047036;28;20215;-71
2023/01/24 05:48:31;;;;;;;1.53;1.17;;;;;;;;;;5045719;28;20211;-70
2023/01/24 05:50:59;;;;;;;3.77;2.73;;;;;;;;;;5045304;28;20211;-70
2023/01/24 05:53:27;;;;;;;4.07;2.23;;;;;;;;;;5045158;28;20224;-70
2023/01/24 05:55:58;;;;;;;2.70;2.50;;;;;;;;;;5047262;28;20709;-71
2023/01/24 05:58:26;;;;;;;4.70;3.07;;;;;;;;;;5046106;28;20216;-70
2023/01/24 06:00:54;;;;;;;3.93;1.00;;;;;;;;;;5046621;28;20269;-71
2023/01/24 06:03:24;;;;;;;8.47;4.37;;;;;;;;;;5046270;28;20261;-71
2023/01/24 06:05:52;;;;;;;1.97;1.87;;;;;;;;;;5051052;28;20200;-70
2023/01/24 06:08:19;;;;;;;3.23;2.13;;;;;;;;;;5050355;28;20265;-71
2023/01/24 06:10:47;;;;;;;7.37;4.13;;;;;;;;;;5048962;28;20207;-70
2023/01/24 06:13:14;;;;;;;2.53;2.33;;;;;;;;;;5049470;28;20214;-69
2023/01/24 06:15:42;;;;;;;4.30;2.33;;;;;;;;;;5050706;28;20269;-70
2023/01/24 06:18:14;;;;;;;4.40;2.80;;;;;;;;;;5051248;28;20663;-70
2023/01/24 06:20:41;;;;;;;4.13;2.20;;;;;;;;;;5048735;28;20217;-70
2023/01/24 06:23:09;;;;;;;3.87;1.90;;;;;;;;;;5051257;28;20207;-70
2023/01/24 06:25:36;;;;;;;2.87;2.23;;;;;;;;;;5048803;28;20207;-70
2023/01/24 06:28:03;;;;;;;2.83;2.30;;;;;;;;;;5049668;28;20303;-70
2023/01/24 06:30:30;;;;;;;4.87;3.13;;;;;;;;;;5049090;28;20214;-71
2023/01/24 06:33:08;;;;;;;5.30;2.73;;;;;;;;;;5050581;28;20204;-71
2023/01/24 06:35:41;;;;;;;1.23;0.47;;;;;;;;;;5043976;28;20367;-70
2023/01/24 06:38:16;;;;;;;1.47;1.17;;;;;;;;;;5046222;28;20290;-69
2023/01/24 06:40:43;;;;;;;3.33;2.63;;;;;;;;;;5049820;28;20532;-70
2023/01/24 06:43:10;;;;;;;1.20;1.13;;;;;;;;;;5049818;28;20733;-70
2023/01/24 06:45:37;;;;;;;0.40;0.40;;;;;;;;;;5049687;28;20710;-70
2023/01/24 06:48:04;;;;;;;2.20;2.10;;;;;;;;;;5049305;28;20212;-71
2023/01/24 06:50:32;;;;;;;4.67;3.67;;;;;;;;;;5048539;28;20208;-71
2023/01/24 06:53:00;;;;;;;2.83;2.53;;;;;;;;;;5046718;28;20759;-70
2023/01/24 06:55:27;;;;;;;3.23;2.17;;;;;;;;;;5047502;28;20230;-69
2023/01/24 06:57:57;;;;;;;4.13;2.50;;;;;;;;;;5050015;28;20220;-71
2023/01/24 07:00:25;;;;;;;4.27;3.03;;;;;;;;;;5049666;28;20208;-70
2023/01/24 07:02:58;;;;;;;3.70;1.53;;;;;;;;;;5049756;28;20781;-71
2023/01/24 07:05:25;;;;;;;4.43;2.77;;;;;;;;;;5049630;28;20326;-70
2023/01/24 07:07:52;;;;;;;3.07;2.53;;;;;;;;;;5050150;28;20215;-70
2023/01/24 07:10:20;;;;;;;2.70;1.87;;;;;;;;;;5049569;28;20703;-70
2023/01/24 07:12:47;;;;;;;2.60;1.20;;;;;;;;;;5049726;28;20220;-70
2023/01/24 07:15:15;;;;;;;1.67;1.57;;;;;;;;;;5049479;28;20686;-70
2023/01/24 07:17:42;;;;;;;1.07;0.97;;;;;;;;;;5049178;28;20210;-70
2023/01/24 07:20:10;;;;;;;2.30;2.10;;;;;;;;;;5049295;28;20729;-70
2023/01/24 07:22:38;;;;;;;1.40;1.30;;;;;;;;;;5049811;28;20314;-71
2023/01/24 07:25:05;;;;;;;2.63;1.70;;;;;;;;;;5049482;28;20231;-70
2023/01/24 07:27:34;;;;;;;1.03;1.03;;;;;;;;;;5049783;28;20211;-70
2023/01/24 07:30:01;;;;;;;5.03;2.37;;;;;;;;;;5049323;28;20760;-70
2023/01/24 07:32:28;;;;;;;1.73;1.60;;;;;;;;;;5049526;28;20208;-70
2023/01/24 07:34:55;;;;;;;1.70;1.60;;;;;;;;;;5046938;28;20200;-69
2023/01/24 07:37:23;;;;;;;3.43;2.27;;;;;;;;;;5040196;28;20310;-70
2023/01/24 07:39:50;;;;;;;4.03;2.30;;;;;;;;;;5049483;28;20298;-70
2023/01/24 07:42:17;;;;;;;3.23;2.40;;;;;;;;;;5049441;28;20218;-70
2023/01/24 07:44:45;;;;;;;2.10;1.50;;;;;;;;;;5049208;28;20238;-70
2023/01/24 07:47:12;;;;;;;12.30;2.20;;;;;;;;;;5049316;28;20222;-70
2023/01/24 07:49:39;;;;;;;3.80;2.73;;;;;;;;;;5049274;28;20269;-70
2023/01/24 07:52:06;;;;;;;2.70;2.10;;;;;;;;;;5049057;28;20208;-70
2023/01/24 07:54:35;;;;;;;3.27;1.77;;;;;;;;;;5049119;28;20230;-70
2023/01/24 07:57:03;;;;;;;3.07;1.33;;;;;;;;;;5045412;28;20231;-70
2023/01/24 07:59:30;;;;;;;2.47;1.60;;;;;;;;;;5049096;28;20216;-70
2023/01/24 08:01:58;;;;;;;4.03;2.67;;;;;;;;;;5048491;28;20265;-70
2023/01/24 08:04:25;;;;;;;3.97;2.17;;;;;;;;;;5048345;28;20277;-70
2023/01/24 08:09:37;;;;;;;1.73;1.43;;;;;;;;;;5042358;28;20210;-69
2023/01/24 08:12:04;;;;;;;3.20;2.73;;;;;;;;;;5047323;28;20576;-71
2023/01/24 08:14:31;;;;;;;3.17;2.93;;;;;;;;;;5048497;28;20757;-69
2023/01/24 08:16:59;;;;;;;2.07;1.97;;;;;;;;;;5048642;28;20207;-69
2023/01/24 08:19:26;;;;;;;4.90;2.00;;;;;;;;;;5048154;28;20239;-69
2023/01/24 08:21:53;;;;;;;1.77;1.63;;;;;;;;;;5048145;28;20214;-69
2023/01/24 08:24:20;;;;;;;1.53;1.37;;;;;;;;;;5046630;28;20220;-69
2023/01/24 08:26:48;;;;;;;2.07;1.93;;;;;;;;;;5047456;28;20204;-70
2023/01/24 08:29:15;;;;;;;2.93;1.13;;;;;;;;;;5047725;28;20302;-70
2023/01/24 08:31:43;;;;;;;3.90;2.23;;;;;;;;;;5047404;28;20203;-69
2023/01/24 08:34:11;;;;;;;1.57;1.27;;;;;;;;;;5047897;28;20219;-71
2023/01/24 08:36:38;;;;;;;5.20;2.03;;;;;;;;;;5047991;28;20211;-68
2023/01/24 08:39:06;;;;;;;3.33;2.40;;;;;;;;;;5047784;28;20215;-70
2023/01/24 08:41:33;;;;;;;2.60;1.40;;;;;;;;;;5047789;28;20218;-69
2023/01/24 08:44:02;;;;;;;2.33;2.17;;;;;;;;;;5046807;28;20224;-70
2023/01/24 08:46:29;;;;;;;7.77;3.63;;;;;;;;;;5047096;28;20208;-72
2023/01/24 08:48:56;;;;;;;0.73;0.70;;;;;;;;;;5045454;28;20269;-68
2023/01/24 08:51:24;;;;;;;2.50;2.30;;;;;;;;;;5047214;28;20208;-69
2023/01/24 08:53:51;;;;;;;4.00;2.43;;;;;;;;;;5027632;28;20374;-70
2023/01/24 08:56:18;;;;;;;2.57;2.10;;;;;;;;;;5041304;28;20230;-75
2023/01/24 08:58:45;;;;;;;1.87;1.70;;;;;;;;;;5046992;28;20207;-71
2023/01/24 09:01:12;;;;;;;6.50;2.67;;;;;;;;;;5047315;28;20294;-71
2023/01/24 09:03:42;;;;;;;2.93;2.33;;;;;;;;;;5047187;28;20206;-68
2023/01/24 09:06:10;;;;;;;1.20;1.20;;;;;;;;;;5046622;28;20242;-74
2023/01/24 09:08:38;;;;;;;2.30;1.87;;;;;;;;;;5046709;28;20195;-70
2023/01/24 09:11:05;;;;;;;4.30;2.33;;;;;;;;;;5047404;28;20268;-69
2023/01/24 09:13:32;;;;;;;2.70;2.43;;;;;;;;;;5047274;28;20211;-72
2023/01/24 09:15:59;;;;;;;4.13;2.23;;;;;;;;;;5047089;28;20215;-70
2023/01/24 09:18:27;;;;;;;3.00;2.30;;;;;;;;;;5046842;28;20346;-73
2023/01/24 09:20:54;;;;;;;2.40;2.20;;;;;;;;;;5047189;28;20265;-70
2023/01/24 09:23:21;;;;;;;6.03;2.77;;;;;;;;;;5045429;28;20231;-68
2023/01/24 09:25:54;;;;;;;3.50;1.77;;;;;;;;;;5046619;28;20590;-70
2023/01/24 09:28:21;;;;;;;2.30;2.00;;;;;;;;;;5027065;28;20217;-79
2023/01/24 09:30:49;;;;;;;2.40;2.20;;;;;;;;;;5027254;28;20226;-67
2023/01/24 09:33:17;;;;;;;2.10;2.00;;;;;;;;;;5045214;28;20306;-68
2023/01/24 09:35:44;;;;;;;2.27;1.57;;;;;;;;;;5048484;28;20200;-68
2023/01/24 09:38:11;;;;;;;2.37;2.07;;;;;;;;;;5045947;28;20287;-67
2023/01/24 09:40:43;;;;;;;2.10;2.00;;;;;;;;;;5042798;28;20211;-68
2023/01/24 09:43:16;;;;;;;3.83;1.87;;;;;;;;;;5049945;28;20313;-68
2023/01/24 09:45:47;;;;;;;4.27;1.30;;;;;;;;;;5046619;28;20234;-70
2023/01/24 09:48:16;;;;;;;0.50;0.43;;;;;;;;;;5050384;28;20613;-69
2023/01/24 09:50:46;;;;;;;5.00;1.67;;;;;;;;;;5048644;28;20369;-69
2023/01/24 09:53:16;;;;;;;1.23;1.13;;;;;;;;;;5050244;28;20208;-69
2023/01/24 09:55:43;;;;;;;2.37;0.87;;;;;;;;;;5050189;28;20204;-69
2023/01/24 09:58:28;;;;;;;2.37;1.97;;;;;;;;;;5050216;28;20692;-70
2023/01/24 10:00:56;;;;;;;1.20;0.43;;;;;;;;;;5049177;28;20363;-69
2023/01/24 10:03:24;;;;;;;1.97;1.87;;;;;;;;;;5049901;28;20211;-70
2023/01/24 10:05:53;;;;;;;5.90;2.20;;;;;;;;;;5049779;28;20219;-70
2023/01/24 10:08:22;;;;;;;2.17;2.03;;;;;;;;;;5049982;28;20211;-70
2023/01/24 10:10:54;;;;;;;2.53;1.20;;;;;;;;;;5048048;28;20674;-69
2023/01/24 10:13:31;;;;;;;1.87;1.40;;;;;;;;;;5049931;28;20227;-69
2023/01/24 10:16:04;;;;;;;1.63;1.37;;;;;;;;;;5050322;28;20249;-70
2023/01/24 10:18:35;;;;;;;1.27;1.23;;;;;;;;;;5042183;28;20580;-70
2023/01/24 10:21:16;;;;;;;1.30;1.17;;;;;;;;;;5049548;28;20226;-69
2023/01/24 10:23:44;;;;;;;4.37;1.93;;;;;;;;;;5046312;28;20203;-69
2023/01/24 10:26:16;;;;;;;4.40;1.20;;;;;;;;;;5050359;28;20232;-69
2023/01/24 10:28:47;;;;;;;0.60;0.60;;;;;;;;;;5049214;28;20258;-69
2023/01/24 10:31:16;;;;;;;1.03;1.03;;;;;;;;;;5048626;28;20212;-69
2023/01/24 10:33:47;;;;;;;1.43;1.23;;;;;;;;;;5050171;28;20254;-69
2023/01/24 10:36:15;;;;;;;3.03;1.60;;;;;;;;;;5050145;28;20651;-68
2023/01/24 10:38:43;;;;;;;1.23;1.23;;;;;;;;;;5045975;28;20318;-76
2023/01/24 10:41:18;;;;;;;2.10;1.90;;;;;;;;;;5046214;28;20302;-70
2023/01/24 10:43:49;;;;;;;0.37;0.37;;;;;;;;;;5048112;28;20217;-69
2023/01/24 10:46:27;;;;;;;1.53;1.43;;;;;;;;;;5049215;28;20219;-70
2023/01/24 10:48:55;;;;;;;1.00;1.00;;;;;;;;;;5033805;28;20305;-69
2023/01/24 10:51:23;;;;;;;3.70;1.00;;;;;;;;;;4985217;28;20217;-69
2023/01/24 10:53:50;;;;;;;0.33;0.33;;;;;;;;;;4978240;28;20280;-69
2023/01/24 10:56:19;;;;;;;0.43;0.43;;;;;;;;;;4985835;28;20256;-69
2023/01/24 10:58:56;;;;;;;0.80;0.80;;;;;;;;;;4988614;28;20368;-69
2023/01/24 11:01:24;;;;;;;1.10;1.10;;;;;;;;;;4993623;28;20230;-69
2023/01/24 11:03:54;;;;;;;2.53;1.60;;;;;;;;;;4985847;28;20575;-69
2023/01/24 11:06:23;;;;;;;4.33;1.60;;;;;;;;;;4988067;28;20775;-70
2023/01/24 11:08:54;;;;;;;0.60;0.60;;;;;;;;;;4989273;28;20292;-70
2023/01/24 11:11:23;;;;;;;2.47;0.93;;;;;;;;;;4989024;28;20216;-69
2023/01/24 11:13:55;;;;;;;2.60;1.83;;;;;;;;;;5004268;28;20230;-70
2023/01/24 11:16:23;;;;;;;2.03;1.47;;;;;;;;;;4989460;28;20297;-69
2023/01/24 11:18:52;;;;;;;1.13;1.00;;;;;;;;;;4990021;28;20288;-69
2023/01/24 11:21:20;;;;;;;1.30;0.60;;;;;;;;;;4989738;28;20205;-70
2023/01/24 11:24:00;;;;;;;1.13;0.73;;;;;;;;;;4989962;28;20637;-69
2023/01/24 11:26:28;;;;;;;3.20;1.63;;;;;;;;;;4997116;28;20342;-70
2023/01/24 11:29:01;;;;;;;1.70;1.60;;;;;;;;;;4989483;28;20210;-69
2023/01/24 11:31:33;;;;;;;2.57;1.17;;;;;;;;;;4988408;28;20213;-70
2023/01/24 11:34:08;;;;;;;2.37;2.17;;;;;;;;;;4989605;28;20220;-70
2023/01/24 11:36:42;;;;;;;1.27;1.20;;;;;;;;;;4989259;28;20632;-70
2023/01/24 11:39:14;;;;;;;1.37;1.27;;;;;;;;;;4987135;28;20213;-69
2023/01/24 11:41:47;;;;;;;1.43;1.17;;;;;;;;;;4989895;28;20209;-70
2023/01/24 11:44:38;;;;;;;1.17;1.03;;;;;;;;;;4989452;28;20267;-68
2023/01/24 11:47:09;;;;;;;1.87;1.77;;;;;;;;;;4979156;28;20217;-66
2023/01/24 11:49:51;;;;;;;3.03;0.97;;;;;;;;;;4989130;28;20210;-69
2023/01/24 11:52:34;;;;;;;2.67;2.57;;;;;;;;;;4987389;28;20696;-69
2023/01/24 11:55:04;;;;;;;3.83;1.90;;;;;;;;;;5000484;28;20212;-68
2023/01/24 11:57:35;;;;;;;1.70;1.60;;;;;;;;;;4988894;28;20225;-69
2023/01/24 12:00:16;;;;;;;3.30;2.00;;;;;;;;;;4988118;28;20216;-69
2023/01/24 12:02:54;;;;;;;3.57;1.80;;;;;;;;;;4989033;28;20224;-70
2023/01/24 12:05:33;;;;;;;1.90;1.63;;;;;;;;;;4988006;28;20287;-69
2023/01/24 12:08:07;;;;;;;2.97;2.67;;;;;;;;;;4988053;28;20209;-68
2023/01/24 12:10:45;;;;;;;0.77;0.77;;;;;;;;;;4988416;28;20206;-68
2023/01/24 12:13:17;;;;;;;2.73;2.00;;;;;;;;;;4988002;28;20264;-69
2023/01/24 12:15:53;;;;;;;1.63;1.50;;;;;;;;;;4989472;28;20242;-66
2023/01/24 12:18:30;;;;;;;2.93;1.60;;;;;;;;;;4972754;28;20329;-70
2023/01/24 12:20:59;;;;;;;4.60;1.93;;;;;;;;;;4987872;28;20271;-65
2023/01/24 12:23:28;;;;;;;1.87;1.30;;;;;;;;;;4993941;28;20300;-65
2023/01/24 12:25:58;;;;;;;6.70;2.37;;;;;;;;;;4983786;28;20244;-69
2023/01/24 12:28:29;;;;;;;2.53;2.33;;;;;;;;;;4994217;28;20734;-69
2023/01/24 12:30:58;;;;;;;2.13;1.63;;;;;;;;;;4986109;28;20568;-68
2023/01/24 12:33:27;;;;;;;0.60;0.50;;;;;;;;;;4977803;28;20206;-69
2023/01/24 12:35:57;;;;;;;0.80;0.80;;;;;;;;;;4979216;28;20209;-69
2023/01/24 12:38:27;;;;;;;1.93;1.20;;;;;;;;;;4987827;28;20213;-69
2023/01/24 12:40:57;;;;;;;1.67;1.57;;;;;;;;;;4985849;28;20300;-69
2023/01/24 12:43:28;;;;;;;1.37;1.27;;;;;;;;;;4993747;28;20217;-70
2023/01/24 12:45:59;;;;;;;1.67;1.03;;;;;;;;;;4988080;28;20229;-69
2023/01/24 12:48:34;;;;;;;1.30;1.20;;;;;;;;;;4987761;28;20209;-68
2023/01/24 12:51:05;;;;;;;0.83;0.70;;;;;;;;;;4986975;28;20301;-69
2023/01/24 12:53:35;;;;;;;1.73;1.63;;;;;;;;;;4988313;28;20217;-69
2023/01/24 12:56:03;;;;;;;4.10;0.97;;;;;;;;;;4986855;28;20236;-69
2023/01/24 12:58:33;;;;;;;0.67;0.67;;;;;;;;;;4987840;28;20214;-68
2023/01/24 13:01:06;;;;;;;1.40;1.40;;;;;;;;;;4988314;28;20206;-69
2023/01/24 13:03:57;;;;;;;2.00;0.83;;;;;;;;;;4987822;28;20217;-69
2023/01/24 13:06:28;;;;;;;0.97;0.90;;;;;;;;;;4988005;28;20237;-71
2023/01/24 13:09:01;;;;;;;1.43;1.33;;;;;;;;;;4997622;28;20315;-69
2023/01/24 13:11:29;;;;;;;4.20;1.90;;;;;;;;;;4989009;28;20221;-69
2023/01/24 13:14:04;;;;;;;0.70;0.70;;;;;;;;;;4988495;28;20237;-72
2023/01/24 13:16:44;;;;;;;3.03;1.70;;;;;;;;;;4988851;28;20223;-69
2023/01/24 13:19:19;;;;;;;4.07;1.43;;;;;;;;;;4987812;28;20244;-71
2023/01/24 13:21:52;;;;;;;1.57;1.47;;;;;;;;;;4987916;28;20209;-71
2023/01/24 13:24:34;;;;;;;3.03;1.57;;;;;;;;;;4987546;28;20213;-70
2023/01/24 13:27:08;;;;;;;2.07;1.97;;;;;;;;;;4984482;28;20724;-69
2023/01/24 13:29:40;;;;;;;1.90;1.80;;;;;;;;;;4979422;28;20713;-71
2023/01/24 13:32:10;;;;;;;5.63;1.33;;;;;;;;;;4987004;28;20485;-70
2023/01/24 13:34:41;;;;;;;0.60;0.53;;;;;;;;;;4991738;28;20210;-70
2023/01/24 13:37:16;;;;;;;1.73;1.50;;;;;;;;;;4987787;28;20247;-70
2023/01/24 13:39:43;;;;;;;2.73;1.23;;;;;;;;;;4987516;28;20228;-69
2023/01/24 13:42:20;;;;;;;2.17;1.50;;;;;;;;;;4987930;28;20210;-69
2023/01/24 13:44:48;;;;;;;2.17;1.97;;;;;;;;;;4988045;28;20221;-69
2023/01/24 13:47:26;;;;;;;3.27;2.70;;;;;;;;;;4988361;28;20226;-69
2023/01/24 13:50:14;;;;;;;1.33;1.20;;;;;;;;;;5002500;28;20220;-70
2023/01/24 13:52:43;;;;;;;5.47;1.93;;;;;;;;;;4987366;28;20210;-69
2023/01/24 13:55:29;;;;;;;2.73;2.50;;;;;;;;;;4987282;28;20205;-69
2023/01/24 13:58:12;;;;;;;0.60;0.60;;;;;;;;;;4983739;28;20304;-69
2023/01/24 14:00:47;;;;;;;1.07;0.87;;;;;;;;;;4981777;28;20224;-69
2023/01/24 14:03:19;;;;;;;3.40;2.07;;;;;;;;;;4986229;28;20245;-69
2023/01/24 14:05:57;;;;;;;1.87;1.50;;;;;;;;;;4986296;28;20328;-68
2023/01/24 14:08:54;;;;;;;4.27;2.40;;;;;;;;;;4977290;28;20333;-69
2023/01/24 14:11:41;;;;;;;1.50;1.40;;;;;;;;;;4943407;28;20207;-69
2023/01/24 14:14:32;;;;;;;0.70;0.70;;;;;;;;;;4982634;28;20257;-68
2023/01/24 14:17:14;;;;;;;2.73;1.90;;;;;;;;;;4966603;28;20210;-69
2023/01/24 14:19:41;;;;;;;1.67;1.40;;;;;;;;;;4971012;28;20249;-70
2023/01/24 14:22:18;;;;;;;1.07;1.00;;;;;;;;;;4986490;28;20206;-68
2023/01/24 14:24:52;;;;;;;2.33;1.73;;;;;;;;;;4991458;28;20213;-69
2023/01/24 14:27:21;;;;;;;2.10;2.00;;;;;;;;;;4990340;28;20221;-69
2023/01/24 14:29:49;;;;;;;2.93;1.70;;;;;;;;;;4980923;28;20214;-69
2023/01/24 14:32:19;;;;;;;1.23;1.13;;;;;;;;;;4990361;28;20213;-74
2023/01/24 14:34:48;;;;;;;3.23;1.40;;;;;;;;;;4972822;28;20229;-69
2023/01/24 14:37:19;;;;;;;2.40;2.20;;;;;;;;;;4983679;28;20220;-69
2023/01/24 14:39:47;;;;;;;3.73;1.97;;;;;;;;;;4993072;28;20207;-70
2023/01/24 14:42:15;;;;;;;0.90;0.63;;;;;;;;;;4987633;28;20213;-69
2023/01/24 14:44:45;;;;;;;1.43;1.33;;;;;;;;;;4989386;28;20209;-69
2023/01/24 14:47:19;;;;;;;2.07;1.50;;;;;;;;;;4989151;28;20229;-69
2023/01/24 14:49:48;;;;;;;2.10;1.90;;;;;;;;;;4989328;28;20208;-69
2023/01/24 14:52:20;;;;;;;6.60;1.77;;;;;;;;;;4987813;28;20224;-69
2023/01/24 14:54:50;;;;;;;1.90;1.80;;;;;;;;;;4988687;28;20210;-70
2023/01/24 14:57:21;;;;;;;3.10;1.77;;;;;;;;;;4990227;28;20226;-71
2023/01/24 14:59:59;;;;;;;2.20;2.03;;;;;;;;;;4992132;28;20213;-70
2023/01/24 15:02:26;;;;;;;2.53;2.00;;;;;;;;;;4988041;28;20213;-71
2023/01/24 15:04:53;;;;;;;0.87;0.60;;;;;;;;;;4989464;28;20210;-71
2023/01/24 15:07:22;;;;;;;1.43;1.33;;;;;;;;;;4989327;28;20229;-71
2023/01/24 15:09:50;;;;;;;1.27;1.10;;;;;;;;;;4989832;28;20269;-71
2023/01/24 15:12:24;;;;;;;2.67;1.57;;;;;;;;;;4986967;28;20254;-70
2023/01/24 15:14:51;;;;;;;2.63;2.43;;;;;;;;;;4970875;28;20780;-70
2023/01/24 15:17:22;;;;;;;1.37;1.03;;;;;;;;;;4985045;28;20206;-72
2023/01/24 15:19:52;;;;;;;3.93;3.37;;;;;;;;;;4987158;28;20332;-73
2023/01/24 15:22:20;;;;;;;1.63;1.53;;;;;;;;;;4988810;28;20731;-70
2023/01/24 15:24:52;;;;;;;2.97;2.67;;;;;;;;;;4988884;28;20209;-71
2023/01/24 15:27:24;;;;;;;2.40;1.93;;;;;;;;;;4989618;28;20288;-75
2023/01/24 15:30:05;;;;;;;3.27;1.93;;;;;;;;;;4979468;28;20588;-71
2023/01/24 15:32:40;;;;;;;2.10;1.53;;;;;;;;;;4984305;28;20218;-70
2023/01/24 15:35:26;;;;;;;2.27;1.73;;;;;;;;;;4989051;28;20212;-71
2023/01/24 15:38:23;;;;;;;1.13;1.13;;;;;;;;;;4989369;28;20239;-71
2023/01/24 15:40:53;;;;;;;2.40;2.20;;;;;;;;;;4989030;28;20291;-70